createdAt,value
2023-02-07T00:01:28.027Z,6.93
2023-02-07T00:03:56.563Z,7.70
2023-02-07T00:06:26.832Z,7.25
2023-02-07T00:08:54.820Z,6.90
2023-02-07T00:11:23.157Z,7.82
2023-02-07T00:13:54.517Z,7.60
2023-02-07T00:16:22.577Z,7.82
2023-02-07T00:18:49.563Z,7.38
2023-02-07T00:21:18.376Z,7.63
2023-02-07T00:23:45.646Z,8.02
2023-02-07T00:26:14.102Z,8.20
2023-02-07T00:28:41.027Z,8.48
2023-02-07T00:31:15.427Z,8.20
2023-02-07T00:33:43.859Z,8.82
2023-02-07T00:36:14.258Z,9.20
2023-02-07T00:38:42.305Z,9.38
2023-02-07T00:41:09.536Z,7.50
2023-02-07T00:43:36.403Z,7.45
2023-02-07T00:46:05.623Z,7.70
2023-02-07T00:48:33.133Z,8.57
2023-02-07T00:51:00.368Z,8.88
2023-02-07T00:53:28.390Z,7.95
2023-02-07T00:55:55.348Z,8.60
2023-02-07T00:58:22.024Z,7.60
2023-02-07T01:00:49.141Z,7.82
2023-02-07T01:03:16.521Z,7.28
2023-02-07T01:05:44.456Z,7.10
2023-02-07T01:08:11.345Z,7.57
2023-02-07T01:10:41.164Z,7.03
2023-02-07T01:13:08.256Z,7.22
2023-02-07T01:15:43.514Z,6.88
2023-02-07T01:18:10.950Z,7.05
2023-02-07T01:20:37.852Z,6.80
2023-02-07T01:23:05.751Z,6.53
2023-02-07T01:25:33.327Z,6.60
2023-02-07T01:28:00.075Z,6.13
2023-02-07T01:30:27.309Z,6.55
2023-02-07T01:32:54.028Z,6.15
2023-02-07T01:35:21.132Z,5.88
2023-02-07T01:37:47.906Z,5.50
2023-02-07T01:40:14.559Z,5.75
2023-02-07T01:42:41.353Z,5.72
2023-02-07T01:45:11.110Z,5.50
2023-02-07T01:47:38.031Z,6.32
2023-02-07T01:50:05.670Z,6.22
2023-02-07T01:52:37.681Z,6.13
2023-02-07T01:55:11.408Z,5.97
2023-02-07T01:57:38.840Z,6.32
2023-02-07T02:00:08.366Z,5.72
2023-02-07T02:02:36.840Z,5.72
2023-02-07T02:05:04.069Z,5.65
2023-02-07T02:07:32.888Z,5.90
2023-02-07T02:10:01.021Z,6.50
2023-02-07T02:12:52.686Z,5.82
2023-02-07T02:15:25.352Z,5.45
2023-02-07T02:18:18.836Z,5.95
2023-02-07T02:21:09.607Z,6.00
2023-02-07T02:23:58.170Z,5.88
2023-02-07T02:26:42.067Z,6.80
2023-02-07T02:29:23.990Z,6.55
2023-02-07T02:32:25.398Z,7.10
2023-02-07T02:35:10.731Z,7.00
2023-02-07T02:37:42.547Z,6.70
2023-02-07T02:40:53.638Z,6.38
2023-02-07T02:43:35.465Z,6.80
2023-02-07T02:46:10.087Z,6.45
2023-02-07T02:48:37.791Z,7.13
2023-02-07T02:51:05.017Z,6.93
2023-02-07T02:53:31.765Z,7.13
2023-02-07T02:56:28.401Z,7.82
2023-02-07T02:59:08.823Z,7.95
2023-02-07T03:01:41.756Z,7.93
2023-02-07T03:04:31.451Z,7.88
2023-02-07T03:07:35.122Z,7.43
2023-02-07T03:10:16.872Z,7.22
2023-02-07T03:13:06.696Z,8.23
2023-02-07T03:15:43.981Z,8.32
2023-02-07T03:18:24.559Z,7.85
2023-02-07T03:23:30.565Z,7.68
2023-02-07T03:25:58.926Z,7.82
2023-02-07T03:28:27.095Z,8.13
2023-02-07T03:30:56.947Z,8.27
2023-02-07T03:33:25.604Z,6.95
2023-02-07T03:36:08.456Z,8.68
2023-02-07T03:38:36.983Z,7.63
2023-02-07T03:41:11.690Z,7.80
2023-02-07T03:43:40.070Z,7.95
2023-02-07T03:46:09.552Z,8.02
2023-02-07T03:48:36.413Z,7.88
2023-02-07T03:51:03.337Z,8.30
2023-02-07T03:53:30.089Z,7.85
2023-02-07T03:55:56.777Z,8.00
2023-02-07T03:58:23.506Z,9.45
2023-02-07T04:00:50.221Z,8.30
2023-02-07T04:03:16.995Z,8.73
2023-02-07T04:05:45.825Z,8.60
2023-02-07T04:08:13.620Z,9.07
2023-02-07T04:10:40.368Z,9.77
2023-02-07T04:13:06.998Z,9.00
2023-02-07T04:15:33.936Z,8.38
2023-02-07T04:18:00.651Z,8.55
2023-02-07T04:20:27.366Z,8.45
2023-02-07T04:22:54.110Z,8.38
2023-02-07T04:25:20.775Z,8.90
2023-02-07T04:27:47.496Z,9.15
2023-02-07T04:30:14.226Z,9.07
2023-02-07T04:32:40.884Z,8.43
2023-02-07T04:35:08.407Z,8.75
2023-02-07T04:37:36.189Z,9.07
2023-02-07T04:40:03.314Z,8.93
2023-02-07T04:42:30.088Z,8.93
2023-02-07T04:44:56.822Z,8.90
2023-02-07T04:47:23.991Z,8.57
2023-02-07T04:49:50.670Z,8.65
2023-02-07T04:52:17.438Z,8.90
2023-02-07T04:54:44.216Z,9.10
2023-02-07T04:57:10.981Z,10.13
2023-02-07T04:59:37.753Z,8.73
2023-02-07T05:02:04.451Z,8.57
2023-02-07T05:04:31.213Z,8.05
2023-02-07T05:06:58.130Z,8.98
2023-02-07T05:09:24.933Z,8.90
2023-02-07T05:11:51.676Z,8.75
2023-02-07T05:14:18.409Z,9.32
2023-02-07T05:16:45.119Z,9.15
2023-02-07T05:19:11.751Z,9.27
2023-02-07T05:21:38.472Z,9.15
2023-02-07T05:24:05.497Z,8.15
2023-02-07T05:26:32.270Z,8.57
2023-02-07T05:28:58.978Z,9.32
2023-02-07T05:31:45.740Z,9.82
2023-02-07T05:34:12.536Z,9.70
2023-02-07T05:36:39.285Z,9.82
2023-02-07T05:39:06.169Z,10.20
2023-02-07T05:41:32.910Z,9.98
2023-02-07T05:43:59.648Z,9.80
2023-02-07T05:46:26.359Z,9.20
2023-02-07T05:48:53.890Z,10.23
2023-02-07T05:51:20.680Z,9.57
2023-02-07T05:53:50.669Z,10.00
2023-02-07T05:56:17.300Z,10.25
2023-02-07T05:58:44.007Z,10.43
2023-02-07T06:01:10.774Z,9.70
2023-02-07T06:03:37.595Z,9.73
2023-02-07T06:06:04.726Z,9.05
2023-02-07T06:08:31.424Z,9.88
2023-02-07T06:11:00.098Z,10.43
2023-02-07T06:13:26.747Z,11.18
2023-02-07T06:15:53.559Z,10.25
2023-02-07T06:18:20.342Z,11.13
2023-02-07T06:20:47.062Z,10.90
2023-02-07T06:23:14.822Z,10.45
2023-02-07T06:25:41.568Z,11.80
2023-02-07T06:28:08.364Z,10.82
2023-02-07T06:30:35.015Z,10.82
2023-02-07T06:33:01.790Z,10.93
2023-02-07T06:35:28.520Z,9.30
2023-02-07T06:37:57.319Z,9.68
2023-02-07T06:40:24.045Z,9.52
2023-02-07T06:42:50.787Z,9.90
2023-02-07T06:45:17.624Z,9.60
2023-02-07T06:47:44.297Z,9.75
2023-02-07T06:50:11.107Z,10.15
2023-02-07T06:52:37.889Z,10.88
2023-02-07T06:55:04.661Z,11.73
2023-02-07T06:57:31.350Z,12.00
2023-02-07T06:59:58.061Z,12.27
2023-02-07T07:02:24.839Z,12.23
2023-02-07T07:04:51.563Z,11.55
2023-02-07T07:07:18.358Z,12.60
2023-02-07T07:09:45.055Z,11.88
2023-02-07T07:12:11.963Z,13.32
2023-02-07T07:14:38.731Z,12.13
2023-02-07T07:17:05.388Z,13.07
2023-02-07T07:19:32.368Z,13.40
2023-02-07T07:21:59.206Z,13.60
2023-02-07T07:24:26.101Z,13.30
2023-02-07T07:26:52.958Z,14.18
2023-02-07T07:29:20.008Z,16.27
2023-02-07T07:31:47.098Z,17.20
2023-02-07T07:34:14.252Z,16.55
2023-02-07T07:36:41.049Z,19.65
2023-02-07T07:39:08.939Z,17.75
2023-02-07T07:41:35.636Z,18.33
2023-02-07T07:44:02.425Z,18.40
2023-02-07T07:46:29.337Z,20.23
2023-02-07T07:48:56.115Z,18.70
2023-02-07T07:51:23.944Z,17.20
2023-02-07T07:53:50.596Z,20.80
2023-02-07T07:56:17.329Z,19.02
2023-02-07T07:58:44.148Z,17.10
2023-02-07T08:01:10.888Z,17.30
2023-02-07T08:03:37.744Z,15.60
2023-02-07T08:06:04.816Z,16.20
2023-02-07T08:08:31.561Z,16.88
2023-02-07T08:11:06.668Z,15.32
2023-02-07T08:13:33.805Z,16.00
2023-02-07T08:16:11.472Z,15.43
2023-02-07T08:18:40.639Z,14.55
2023-02-07T08:21:07.479Z,15.20
2023-02-07T08:23:35.075Z,15.90
2023-02-07T08:26:02.407Z,15.50
2023-02-07T08:28:30.513Z,15.65
2023-02-07T08:31:02.315Z,16.90
2023-02-07T08:33:30.336Z,15.93
2023-02-07T08:35:57.607Z,16.10
2023-02-07T08:38:24.425Z,16.48
2023-02-07T08:40:51.122Z,16.73
2023-02-07T08:43:18.295Z,16.23
2023-02-07T08:45:48.254Z,16.05
2023-02-07T08:48:15.225Z,17.88
2023-02-07T08:50:42.232Z,15.85
2023-02-07T08:53:09.119Z,20.20
2023-02-07T08:55:36.349Z,17.70
2023-02-07T08:58:03.057Z,15.45
2023-02-07T09:00:29.786Z,15.75
2023-02-07T09:02:56.505Z,15.85
2023-02-07T09:05:23.330Z,16.08
2023-02-07T09:07:52.381Z,16.33
2023-02-07T09:10:19.171Z,16.38
2023-02-07T09:12:45.987Z,15.38
2023-02-07T09:15:12.857Z,15.68
2023-02-07T09:17:39.680Z,15.93
2023-02-07T09:20:07.861Z,14.68
2023-02-07T09:22:54.638Z,16.02
2023-02-07T09:25:21.390Z,13.52
2023-02-07T09:27:48.146Z,14.88
2023-02-07T09:30:15.171Z,13.43
2023-02-07T09:32:41.856Z,13.93
2023-02-07T09:35:08.812Z,12.90
2023-02-07T09:37:48.710Z,13.88
2023-02-07T09:40:19.473Z,30.80
2023-02-07T09:43:12.700Z,13.20
2023-02-07T09:45:45.025Z,15.95
2023-02-07T09:48:25.444Z,13.68
2023-02-07T09:50:59.156Z,18.70
2023-02-07T09:53:38.361Z,28.00
2023-02-07T09:56:06.355Z,29.05
2023-02-07T09:59:05.093Z,30.52
2023-02-07T10:01:48.555Z,14.77
2023-02-07T10:04:17.998Z,28.25
2023-02-07T10:06:47.427Z,20.63
2023-02-07T10:09:19.517Z,28.33
2023-02-07T10:11:57.962Z,21.42
2023-02-07T10:14:24.648Z,10.80
2023-02-07T10:17:31.139Z,11.18
2023-02-07T10:20:29.272Z,9.25
2023-02-07T10:23:09.435Z,8.23
2023-02-07T10:25:58.023Z,7.78
2023-02-07T10:28:25.745Z,7.82
2023-02-07T10:30:58.589Z,7.45
2023-02-07T10:33:32.656Z,7.40
2023-02-07T10:36:03.725Z,7.00
2023-02-07T10:39:09.452Z,7.10
2023-02-07T10:41:44.121Z,6.80
2023-02-07T10:44:19.373Z,6.30
2023-02-07T10:46:50.802Z,6.45
2023-02-07T10:49:28.533Z,7.32
2023-02-07T10:52:02.840Z,6.60
2023-02-07T10:54:48.604Z,6.90
2023-02-07T10:57:19.301Z,6.63
2023-02-07T10:59:46.590Z,6.18
2023-02-07T11:02:28.793Z,6.40
2023-02-07T11:04:57.212Z,6.55
2023-02-07T11:07:25.669Z,6.60
2023-02-07T11:10:12.698Z,6.68
2023-02-07T11:12:46.449Z,6.45
2023-02-07T11:15:23.241Z,7.40
2023-02-07T11:17:52.626Z,6.57
2023-02-07T11:20:30.267Z,6.10
2023-02-07T11:22:58.356Z,6.43
2023-02-07T11:25:40.369Z,6.53
2023-02-07T11:28:14.925Z,6.70
2023-02-07T11:30:41.682Z,6.18
2023-02-07T11:33:19.504Z,6.82
2023-02-07T11:36:08.436Z,5.75
2023-02-07T11:38:41.751Z,6.25
2023-02-07T11:41:20.865Z,6.47
2023-02-07T11:44:02.628Z,6.20
2023-02-07T11:46:37.070Z,5.93
2023-02-07T11:49:18.801Z,5.95
2023-02-07T11:51:45.647Z,6.30
2023-02-07T11:54:13.864Z,6.13
2023-02-07T11:56:48.353Z,6.22
2023-02-07T11:59:21.502Z,6.25
2023-02-07T12:01:54.091Z,6.40
2023-02-07T12:04:27.368Z,5.40
2023-02-07T12:07:00.203Z,6.32
2023-02-07T12:09:43.428Z,6.22
2023-02-07T12:12:17.876Z,5.60
2023-02-07T12:15:29.652Z,6.15
2023-02-07T12:18:10.779Z,5.45
2023-02-07T12:21:11.095Z,6.43
2023-02-07T12:24:00.324Z,6.65
2023-02-07T12:26:44.930Z,6.32
2023-02-07T12:29:33.276Z,6.43
2023-02-07T12:32:27.674Z,5.68
2023-02-07T12:35:37.717Z,6.85
2023-02-07T12:38:12.256Z,6.18
2023-02-07T12:40:50.329Z,5.75
2023-02-07T12:43:35.921Z,6.35
2023-02-07T12:46:02.908Z,6.10
2023-02-07T12:48:51.729Z,5.90
2023-02-07T12:51:34.884Z,6.55
2023-02-07T12:54:10.626Z,6.10
2023-02-07T12:56:53.053Z,5.80
2023-02-07T12:59:41.541Z,6.05
2023-02-07T13:02:33.002Z,6.10
2023-02-07T13:05:28.061Z,6.30
2023-02-07T13:08:26.592Z,6.70
2023-02-07T13:10:58.919Z,6.15
2023-02-07T13:13:56.364Z,6.28
2023-02-07T13:16:53.456Z,6.05
2023-02-07T13:19:56.424Z,6.00
2023-02-07T13:22:38.184Z,6.65
2023-02-07T13:25:12.653Z,6.10
2023-02-07T13:27:41.982Z,6.30
2023-02-07T13:30:16.205Z,6.30
2023-02-07T13:32:46.054Z,5.68
2023-02-07T13:35:20.929Z,6.47
2023-02-07T13:38:09.298Z,5.90
2023-02-07T13:40:50.975Z,6.53
2023-02-07T13:43:26.335Z,5.90
2023-02-07T13:46:08.950Z,6.03
2023-02-07T13:48:56.566Z,6.55
2023-02-07T13:52:00.819Z,6.15
2023-02-07T13:54:43.328Z,6.95
2023-02-07T13:57:59.115Z,5.55
2023-02-07T14:00:57.450Z,6.50
2023-02-07T14:03:32.842Z,6.47
2023-02-07T14:06:22.159Z,6.07
2023-02-07T14:09:17.810Z,6.30
2023-02-07T14:11:48.680Z,6.32
2023-02-07T14:14:25.343Z,6.72
2023-02-07T14:17:03.410Z,5.57
2023-02-07T14:19:45.583Z,6.88
2023-02-07T14:22:50.367Z,6.35
2023-02-07T14:25:44.291Z,5.43
2023-02-07T14:28:21.429Z,5.70
2023-02-07T14:30:54.430Z,5.47
2023-02-07T14:33:22.237Z,5.72
2023-02-07T14:36:10.026Z,6.25
2023-02-07T14:38:59.801Z,5.72
2023-02-07T14:41:39.646Z,5.67
2023-02-07T14:44:19.656Z,5.10
2023-02-07T14:46:55.686Z,4.70
2023-02-07T14:49:29.115Z,4.78
2023-02-07T14:52:07.018Z,4.65
2023-02-07T14:54:40.829Z,5.25
2023-02-07T14:57:43.194Z,5.20
2023-02-07T15:00:12.658Z,6.32
2023-02-07T15:03:18.987Z,5.05
2023-02-07T15:05:54.707Z,5.30
2023-02-07T15:08:26.828Z,5.65
2023-02-07T15:11:05.672Z,6.45
2023-02-07T15:13:45.357Z,7.22
2023-02-07T15:16:22.094Z,6.93
2023-02-07T15:18:57.365Z,6.18
2023-02-07T15:21:34.698Z,6.88
2023-02-07T15:24:06.016Z,6.68
2023-02-07T15:26:35.118Z,7.20
2023-02-07T15:29:05.242Z,7.07
2023-02-07T15:31:38.686Z,7.80
2023-02-07T15:34:12.179Z,7.38
2023-02-07T15:36:42.360Z,6.53
2023-02-07T15:39:21.392Z,6.97
2023-02-07T15:41:49.671Z,6.97
2023-02-07T15:44:25.746Z,7.65
2023-02-07T15:47:03.873Z,7.50
2023-02-07T15:49:36.259Z,7.75
2023-02-07T15:52:08.738Z,7.70
2023-02-07T15:54:40.293Z,8.50
2023-02-07T15:57:21.519Z,8.77
2023-02-07T15:59:52.231Z,7.13
2023-02-07T16:02:32.661Z,6.65
2023-02-07T16:05:08.180Z,8.20
2023-02-07T16:07:36.245Z,7.63
2023-02-07T16:10:25.916Z,7.53
2023-02-07T16:12:59.674Z,9.80
2023-02-07T16:15:28.696Z,10.63
2023-02-07T16:17:55.837Z,10.82
2023-02-07T16:20:25.814Z,8.93
2023-02-07T16:22:55.851Z,9.07
2023-02-07T16:25:26.499Z,7.60
2023-02-07T16:27:53.550Z,7.32
2023-02-07T16:30:41.438Z,7.53
2023-02-07T16:33:12.681Z,7.90
2023-02-07T16:35:39.347Z,8.18
2023-02-07T16:38:06.191Z,14.43
2023-02-07T16:40:32.925Z,14.60
2023-02-07T16:43:02.218Z,10.00
2023-02-07T16:45:29.751Z,6.65
2023-02-07T16:47:58.918Z,6.35
2023-02-07T16:50:28.644Z,6.60
2023-02-07T16:52:57.168Z,6.63
2023-02-07T16:55:26.532Z,6.35
2023-02-07T16:57:54.724Z,6.82
2023-02-07T17:00:26.260Z,7.00
2023-02-07T17:02:54.076Z,9.90
2023-02-07T17:05:22.417Z,9.27
2023-02-07T17:07:50.464Z,7.18
2023-02-07T17:10:25.174Z,6.55
2023-02-07T17:12:54.968Z,6.15
2023-02-07T17:15:22.165Z,5.85
2023-02-07T17:17:49.258Z,5.95
2023-02-07T17:20:30.857Z,5.40
2023-02-07T17:22:57.605Z,6.40
2023-02-07T17:25:28.160Z,6.50
2023-02-07T17:30:26.634Z,5.90
2023-02-07T17:32:54.429Z,6.05
2023-02-07T17:35:22.275Z,6.85
2023-02-07T17:37:49.384Z,6.13
2023-02-07T17:40:35.398Z,6.10
2023-02-07T17:43:02.637Z,5.38
2023-02-07T17:45:30.912Z,5.47
2023-02-07T17:47:59.343Z,5.25
2023-02-07T17:50:35.526Z,5.20
2023-02-07T17:53:03.203Z,6.20
2023-02-07T17:55:32.274Z,4.97
2023-02-07T17:57:59.863Z,5.68
2023-02-07T18:00:32.832Z,6.07
2023-02-07T18:02:59.477Z,5.78
2023-02-07T18:05:26.704Z,6.13
2023-02-07T18:07:53.580Z,5.82
2023-02-07T18:10:28.732Z,5.82
2023-02-07T18:12:55.617Z,5.30
2023-02-07T18:15:23.112Z,6.40
2023-02-07T18:17:51.443Z,6.30
2023-02-07T18:20:30.651Z,6.03
2023-02-07T18:22:58.688Z,5.63
2023-02-07T18:25:27.655Z,6.00
2023-02-07T18:27:54.932Z,6.60
2023-02-07T18:30:29.905Z,6.70
2023-02-07T18:32:58.719Z,6.63
2023-02-07T18:35:25.369Z,6.10
2023-02-07T18:37:52.168Z,6.10
2023-02-07T18:40:20.014Z,5.80
2023-02-07T18:42:46.764Z,5.60
2023-02-07T18:45:14.469Z,6.00
2023-02-07T18:47:42.048Z,6.13
2023-02-07T18:50:10.764Z,5.95
2023-02-07T18:52:38.087Z,6.60
2023-02-07T18:55:05.830Z,6.80
2023-02-07T18:57:32.553Z,6.60
2023-02-07T18:59:59.271Z,6.55
2023-02-07T19:02:26.020Z,6.80
2023-02-07T19:04:52.718Z,6.85
2023-02-07T19:07:19.467Z,6.75
2023-02-07T19:09:46.478Z,6.95
2023-02-07T19:12:13.879Z,7.15
2023-02-07T19:14:40.537Z,7.45
2023-02-07T19:17:07.277Z,7.55
2023-02-07T19:19:34.301Z,7.18
2023-02-07T19:22:01.447Z,6.80
2023-02-07T19:24:28.494Z,6.68
2023-02-07T19:26:58.129Z,7.70
2023-02-07T19:29:30.054Z,8.67
2023-02-07T19:32:07.403Z,7.88
2023-02-07T19:34:35.315Z,7.80
2023-02-07T19:37:02.537Z,9.10
2023-02-07T19:39:29.446Z,9.57
2023-02-07T19:41:56.125Z,9.02
2023-02-07T19:44:24.872Z,10.85
2023-02-07T19:46:51.579Z,12.50
2023-02-07T19:49:18.461Z,12.95
2023-02-07T19:51:55.310Z,15.07
2023-02-07T19:54:22.034Z,16.13
2023-02-07T19:56:49.923Z,17.10
2023-02-07T19:59:18.646Z,18.20
2023-02-07T20:01:45.620Z,21.10
2023-02-07T20:04:13.678Z,22.42
2023-02-07T20:06:40.486Z,23.48
2023-02-07T20:09:07.624Z,21.65
2023-02-07T20:11:34.819Z,18.42
2023-02-07T20:14:06.857Z,17.38
2023-02-07T20:16:36.638Z,15.55
2023-02-07T20:19:05.801Z,15.80
2023-02-07T20:21:33.738Z,16.00
2023-02-07T20:24:01.278Z,16.27
2023-02-07T20:26:36.498Z,17.42
2023-02-07T20:29:05.636Z,16.65
2023-02-07T20:31:32.561Z,16.65
2023-02-07T20:34:00.128Z,16.90
2023-02-07T20:36:27.523Z,16.58
2023-02-07T20:38:57.304Z,17.20
2023-02-07T20:41:36.119Z,17.75
2023-02-07T20:44:15.004Z,18.63
2023-02-07T20:46:43.856Z,18.23
2023-02-07T20:49:16.722Z,18.27
2023-02-07T20:51:45.375Z,18.30
2023-02-07T20:54:12.966Z,17.30
2023-02-07T20:56:39.703Z,16.85
2023-02-07T20:59:07.946Z,17.20
2023-02-07T21:01:35.555Z,18.48
2023-02-07T21:04:04.856Z,17.80
2023-02-07T21:06:32.876Z,18.55
2023-02-07T21:09:02.109Z,21.15
2023-02-07T21:11:33.742Z,23.00
2023-02-07T21:14:01.967Z,21.38
2023-02-07T21:16:30.729Z,23.45
2023-02-07T21:18:59.343Z,23.33
2023-02-07T21:21:26.919Z,23.00
2023-02-07T21:23:53.693Z,23.27
2023-02-07T21:26:20.669Z,21.75
2023-02-07T21:28:47.543Z,22.95
2023-02-07T21:31:21.728Z,23.90
2023-02-07T21:33:49.964Z,25.27
2023-02-07T21:36:22.987Z,25.75
2023-02-07T21:38:51.583Z,26.83
2023-02-07T21:41:21.718Z,29.08
2023-02-07T21:43:48.506Z,28.63
2023-02-07T21:46:21.638Z,26.50
2023-02-07T21:48:50.607Z,26.65
2023-02-07T21:51:22.427Z,27.17
2023-02-07T21:53:54.577Z,29.67
2023-02-07T21:56:27.944Z,33.05
2023-02-07T21:59:00.816Z,31.63
2023-02-07T22:01:28.741Z,29.40
2023-02-07T22:03:57.901Z,27.05
2023-02-07T22:06:24.869Z,25.40
2023-02-07T22:08:56.201Z,25.80
2023-02-07T22:11:24.501Z,23.50
2023-02-07T22:13:52.702Z,24.27
2023-02-07T22:16:21.828Z,24.52
2023-02-07T22:18:48.808Z,24.50
2023-02-07T22:21:18.848Z,25.70
2023-02-07T22:23:45.668Z,26.60
2023-02-07T22:26:13.136Z,25.55
2023-02-07T22:28:41.336Z,26.80
2023-02-07T22:31:13.157Z,27.15
2023-02-07T22:33:40.603Z,27.20
2023-02-07T22:36:21.423Z,26.33
2023-02-07T22:38:48.642Z,25.33
2023-02-07T22:41:16.827Z,27.35
2023-02-07T22:43:43.603Z,26.02
2023-02-07T22:46:14.862Z,25.77
2023-02-07T22:48:41.828Z,25.17
2023-02-07T22:51:23.380Z,24.77
2023-02-07T22:53:53.111Z,24.15
2023-02-07T22:56:20.332Z,24.48
2023-02-07T22:58:47.073Z,24.35
2023-02-07T23:01:38.837Z,21.80
2023-02-07T23:04:08.481Z,22.25
2023-02-07T23:06:35.200Z,24.38
2023-02-07T23:09:02.313Z,21.48
2023-02-07T23:11:29.005Z,22.45
2023-02-07T23:13:55.740Z,22.48
2023-02-07T23:16:24.855Z,22.20
2023-02-07T23:18:53.507Z,22.58
2023-02-07T23:21:21.873Z,22.15
2023-02-07T23:23:49.175Z,21.52
2023-02-07T23:26:18.371Z,21.73
2023-02-07T23:28:45.540Z,21.63
2023-02-07T23:31:15.027Z,20.90
2023-02-07T23:33:42.518Z,23.70
2023-02-07T23:36:09.453Z,23.58
2023-02-07T23:38:36.556Z,23.15
2023-02-07T23:41:03.971Z,25.77
2023-02-07T23:43:30.904Z,24.27
2023-02-07T23:45:58.795Z,23.70
2023-02-07T23:48:25.695Z,23.92
2023-02-07T23:50:57.889Z,25.90
2023-02-07T23:53:25.493Z,25.95
2023-02-07T23:55:55.144Z,24.80
2023-02-07T23:58:23.423Z,25.07
